This is the latest recevied weather packets stored in our database for station/object DO6MJ-1. If no packets are shown the sender has not sent any weather packets the latest 10 day(s).
| Time | Temp. | Humidity | Pressure | Rain* | Wind** | Luminosity | Snow |
|---|---|---|---|---|---|---|---|
| 1777755733 | 18.33° C | 57% | 1007 hPa | 0 mm | - | - | - |
| 1777754533 | 18.33° C | 56% | 1007.2 hPa | 0 mm | - | - | - |
| 1777753333 | 18.89° C | 55% | 1007.3 hPa | 0 mm | - | - | - |
| 1777752133 | 20° C | 52% | 1007.1 hPa | 0 mm | - | - | - |
| 1777750932 | 20° C | 51% | 1007.3 hPa | 0 mm | - | - | - |
| 1777749732 | 21.11° C | 49% | 1007.2 hPa | 0 mm | - | - | - |
| 1777748532 | 21.67° C | 47% | 1007.1 hPa | 0 mm | - | - | - |
| 1777747331 | 23.33° C | 43% | 1007.1 hPa | 0 mm | - | - | - |
| 1777746131 | 24.44° C | 40% | 1007.3 hPa | 0 mm | - | - | - |
| 1777744931 | 25.56° C | 39% | 1007.2 hPa | 0 mm | - | - | - |
| 1777743730 | 26.11° C | 37% | 1007.1 hPa | 0 mm | - | - | - |
| 1777742530 | 26.67° C | 37% | 1007.3 hPa | 0 mm | - | - | - |
| 1777741330 | 27.22° C | 36% | 1007.5 hPa | 0 mm | - | - | - |
| 1777740130 | 27.22° C | 35% | 1007.7 hPa | 0 mm | - | - | - |
| 1777738929 | 27.78° C | 34% | 1007.9 hPa | 0 mm | - | - | - |
| 1777737729 | 27.78° C | 34% | 1008.2 hPa | 0 mm | - | - | - |
| 1777736529 | 28.33° C | 33% | 1008.2 hPa | 0 mm | - | - | - |
| 1777735329 | 28.33° C | 32% | 1008.3 hPa | 0 mm | - | - | - |
| 1777734128 | 28.33° C | 30% | 1008.6 hPa | 0 mm | - | - | - |
| 1777732928 | 28.33° C | 30% | 1008.8 hPa | 0 mm | - | - | - |
| 1777731728 | 28.33° C | 30% | 1009 hPa | 0 mm | - | - | - |
| 1777730527 | 28.33° C | 30% | 1009.2 hPa | 0 mm | - | - | - |
| 1777729327 | 28.33° C | 30% | 1009.5 hPa | 0 mm | - | - | - |
| 1777728127 | 27.78° C | 31% | 1009.6 hPa | 0 mm | - | - | - |
| 1777726927 | 27.22° C | 34% | 1009.8 hPa | 0 mm | - | - | - |
* Rain latest hour (hover to see other rain measurements)
** Current wind speed in m/s (hover to see current wind gust speed)